Weather observations for the past three days for
Waco, Waco Regional Airport
| Date | Time (cdt) | Wind (kph) | Vis. (km) | Weather | Sky Cond. | Temperature (ºC) | Relative Humidity | Wind Chill (°C) | Heat Index (°C) | Pressure | Precipitation (cm) | ||||||
|---|---|---|---|---|---|---|---|---|---|---|---|---|---|---|---|---|---|
| Air | Dwpt | 6 hour | altimeter (cm) | sea level (mb) | 1 hr | 3 hr | 6 hr | ||||||||||
| Max. | Min. | ||||||||||||||||
| 05 | 09:51 | Vrbl 6 | 16.09 | Fair | CLR | 29.4 | 23.9 | 72% | 34 | 76.12 | 1013.9 | ||||||
| 05 | 08:51 | S 9 | 16.09 | Fair | CLR | 27.8 | 23.9 | 79% | 32 | 76.1 | 1013.7 | ||||||
| 05 | 07:51 | Calm | 16.09 | Fair | CLR | 24.4 | 22.8 | 91% | 24 | 76.07 | 1013.4 | ||||||
| 05 | 06:51 | Calm | 16.09 | Fair | CLR | 24.4 | 22.8 | 27.8 | 23.9 | 91% | 24 | 76.02 | 1012.7 | ||||
| 05 | 05:51 | S 7 | 16.09 | Fair | CLR | 25 | 22.8 | 88% | 26 | 76.02 | 1012.6 | ||||||
| 05 | 04:51 | S 11 | 16.09 | Fair | CLR | 26.1 | 22.8 | 82% | 28 | 76.02 | 1012.4 | ||||||
| 05 | 03:51 | S 11 | 16.09 | Fair | CLR | 26.1 | 22.8 | 82% | 28 | 76 | 1012.3 | ||||||
| 05 | 02:51 | S 7 | 16.09 | Fair | CLR | 25.6 | 22.2 | 82% | 27 | 76 | 1012.4 | ||||||
| 05 | 01:51 | SW 7 | 16.09 | Fair | CLR | 26.7 | 22.2 | 76% | 29 | 76.02 | 1012.6 | ||||||
| 05 | 00:51 | S 13 | 16.09 | Fair | CLR | 27.8 | 22.8 | 34.4 | 27.8 | 74% | 31 | 76.02 | 1012.5 | ||||
| 04 | 23:51 | S 17 | 16.09 | Fair | CLR | 28.9 | 22.2 | 67% | 32 | 76.02 | 1012.6 | ||||||
| 04 | 22:51 | S 15 | 16.09 | Fair | CLR | 28.9 | 22.8 | 70% | 32 | 76.02 | 1012.6 | ||||||
| 04 | 21:51 | S 15 | 16.09 | Fair | CLR | 30 | 22.2 | 63% | 33 | 76.02 | 1012.4 | ||||||
| 04 | 20:51 | S 20 | 16.09 | Fair | CLR | 30.6 | 21.7 | 59% | 34 | 75.95 | 1011.7 | ||||||
| 04 | 19:51 | S 24 | 16.09 | Fair | CLR | 31.7 | 22.8 | 59% | 36 | 75.9 | 1011.1 | ||||||
| 04 | 18:51 | SE 28 | 16.09 | Fair | CLR | 34.4 | 20.6 | 37.2 | 34.4 | 44% | 37 | 75.84 | 1010.4 | ||||
| 04 | 17:51 | S 19 | 16.09 | Fair | CLR | 36.1 | 18.9 | 36% | 38 | 75.84 | 1010.2 | ||||||
| 04 | 16:51 | S 24 | 16.09 | Fair | CLR | 36.1 | 18.3 | 35% | 38 | 75.87 | 1010.7 | ||||||
| 04 | 15:51 | S 19 | 16.09 | Fair | CLR | 36.7 | 20.6 | 39% | 40 | 75.92 | 1011.3 | ||||||
| 04 | 14:51 | S 17 | 16.09 | Fair | CLR | 37.2 | 19.4 | 35% | 40 | 75.97 | 1011.8 | ||||||
| 04 | 13:51 | S 17 G 26 | 16.09 | Partly Cloudy | SCT100 | 36.1 | 21.7 | 43% | 41 | 76.02 | 1012.7 | ||||||
| 04 | 12:51 | Vrbl 11 | 16.09 | Partly Cloudy | SCT095 | 34.4 | 20.6 | 34.4 | 25.6 | 44% | 37 | 76.07 | 1013.4 | ||||
| 04 | 11:51 | SW 13 | 16.09 | Fair | CLR | 33.9 | 22.2 | 50% | 38 | 76.12 | 1013.9 | ||||||
| 04 | 10:51 | S 17 | 16.09 | A Few Clouds | FEW095 | 31.7 | 22.8 | 59% | 36 | 76.12 | 1014.0 | ||||||
| 04 | 09:51 | S 13 | 16.09 | Fair | CLR | 30 | 22.2 | 63% | 33 | 76.12 | 1014.0 | ||||||
| 04 | 08:51 | S 9 | 16.09 | Partly Cloudy | FEW014 SCT100 | 27.8 | 25 | 85% | 32 | 76.1 | 1013.7 | ||||||
| 04 | 07:51 | SE 9 | 16.09 | Fair | CLR | 26.1 | 24.4 | 90% | 28 | 76.07 | 1013.3 | ||||||
| 04 | 06:51 | S 11 | 16.09 | Fair | CLR | 26.1 | 24.4 | 26.1 | 25.6 | 90% | 28 | 76.02 | 1012.7 | 0.05 | |||
| 04 | 05:51 | S 11 | 16.09 | Mostly Cloudy | BKN120 | 26.1 | 24.4 | 90% | 28 | 76 | 1012.2 | ||||||
| 04 | 04:51 | S 15 | 16.09 | Overcast | FEW014 BKN095 OVC120 | 26.1 | 24.4 | 90% | 28 | 75.97 | 1012.0 | ||||||
| 04 | 03:51 | S 11 | 16.09 | Overcast | BKN100 OVC110 | 26.1 | 23.9 | 88% | 28 | 75.97 | 1012.0 | 0.05 | |||||
| 04 | 02:51 | S 15 | 16.09 | Mostly Cloudy | BKN110 | 25.6 | 23.9 | 90% | 27 | 75.97 | 1012.0 | ||||||
| 04 | 01:51 | S 20 | 16.09 | Mostly Cloudy | BKN110 | 25.6 | 23.9 | 90% | 27 | 75.97 | 1012.1 | 0.05 | |||||
| 04 | 00:51 | SE 20 | 12.87 | Rain | SCT044 BKN065 OVC095 | 26.1 | 23.3 | 29.4 | 26.1 | 85% | 28 | 76 | 1012.2 | ||||
| 03 | 23:51 | SE 17 | 16.09 | Mostly Cloudy | BKN100 BKN120 | 26.7 | 23.3 | 82% | 29 | 76 | 1012.3 | ||||||
| 03 | 22:51 | SE 15 | 16.09 | Fair | CLR | 26.1 | 23.3 | 85% | 28 | 76 | 1012.3 | ||||||
| 03 | 21:51 | SE 20 | 16.09 | Fair | CLR | 26.7 | 23.9 | 85% | 29 | 75.97 | 1011.9 | ||||||
| 03 | 20:51 | SE 17 | 16.09 | Fair | CLR | 27.2 | 23.9 | 82% | 30 | 75.9 | 1011.0 | ||||||
| 03 | 19:51 | SE 24 | 16.09 | Fair | CLR | 28.3 | 23.3 | 74% | 32 | 75.87 | 1010.5 | ||||||
| 03 | 18:51 | SE 28 | 16.09 | Fair | CLR | 29.4 | 22.8 | 34.4 | 28.9 | 68% | 33 | 75.87 | 1010.6 | ||||
| 03 | 17:51 | SE 28 | 16.09 | Partly Cloudy | SCT110 | 31.1 | 21.7 | 57% | 34 | 75.82 | 1010.1 | ||||||
| 03 | 16:51 | SE 26 G 43 | 16.09 | Partly Cloudy | SCT110 | 30.6 | 22.8 | 63% | 35 | 75.84 | 1010.2 | ||||||
| 03 | 15:51 | S 26 | 16.09 | Fair | CLR | 33.3 | 22.8 | 54% | 38 | 75.84 | 1010.3 | ||||||
| 03 | 14:51 | S 24 G 37 | 16.09 | Fair | CLR | 32.8 | 23.3 | 57% | 38 | 75.92 | 1011.2 | ||||||
| 03 | 13:51 | SE 26 | 16.09 | Fair | CLR | 30 | 23.9 | 70% | 35 | 76 | 1012.5 | ||||||
| 03 | 12:51 | SE 24 | 16.09 | A Few Clouds | FEW110 | 28.3 | 24.4 | 28.9 | 26.7 | 79% | 33 | 76.07 | 1013.3 | ||||
| 03 | 11:51 | SE 28 | 16.09 | Mostly Cloudy | FEW014 SCT028 BKN034 | 28.3 | 24.4 | 79% | 33 | 76.12 | 1013.9 | ||||||
| 03 | 10:51 | SE 19 | 16.09 | Overcast | FEW015 BKN025 OVC031 | 28.3 | 24.4 | 79% | 33 | 76.07 | 1013.3 | ||||||
| 03 | 09:51 | SE 19 | 16.09 | Overcast | BKN019 OVC026 | 27.8 | 24.4 | 82% | 32 | 76.05 | 1012.9 | ||||||
| 03 | 08:51 | SE 17 | 16.09 | Overcast | BKN017 OVC024 | 27.2 | 23.9 | 82% | 30 | 76.02 | 1012.7 | ||||||
| 03 | 07:51 | SE 13 | 16.09 | Overcast | OVC017 | 26.7 | 23.3 | 82% | 29 | 76 | 1012.5 | ||||||
| 03 | 06:51 | S 13 | 16.09 | Overcast | OVC085 | 26.7 | 23.3 | 27.8 | 26.7 | 82% | 29 | 75.97 | 1011.9 | ||||
| 03 | 05:51 | S 20 | 16.09 | Overcast | OVC090 | 26.7 | 23.3 | 82% | 29 | 75.95 | 1011.6 | ||||||
| 03 | 04:51 | S 22 | 16.09 | Mostly Cloudy | BKN090 | 26.7 | 22.8 | 79% | 29 | 75.95 | 1011.5 | ||||||
| 03 | 03:51 | S 24 | 16.09 | Fair | CLR | 26.7 | 22.8 | 79% | 29 | 75.95 | 1011.7 | ||||||
| 03 | 02:51 | S 17 | 16.09 | Fair | CLR | 26.7 | 22.2 | 76% | 29 | 75.97 | 1011.9 | ||||||
| 03 | 01:51 | S 22 | 16.09 | Fair | CLR | 27.2 | 22.8 | 77% | 30 | 75.95 | 1011.7 | ||||||
| 03 | 00:51 | S 20 | 16.09 | Fair | CLR | 27.8 | 22.8 | 35 | 27.2 | 74% | 31 | 76 | 1012.1 | ||||
| 02 | 23:51 | SE 9 | 16.09 | Fair | CLR | 27.2 | 22.2 | 74% | 30 | 76 | 1012.1 | ||||||
| 02 | 22:51 | SE 19 | 16.09 | Fair | CLR | 28.3 | 22.2 | 70% | 31 | 76.02 | 1012.5 | ||||||
| 02 | 21:51 | E 19 | 16.09 | Fair | CLR | 29.4 | 21.1 | 61% | 32 | 76 | 1012.2 | ||||||
| 02 | 20:51 | E 15 | 16.09 | Fair | CLR | 30 | 21.7 | 61% | 33 | 75.9 | 1011.0 | ||||||
| 02 | 19:51 | E 19 | 16.09 | Fair | CLR | 31.7 | 21.1 | 53% | 35 | 75.87 | 1010.5 | ||||||
| 02 | 18:51 | E 26 G 41 | 16.09 | A Few Clouds | FEW085 | 35 | 20 | 39.4 | 35 | 41% | 38 | 75.82 | 1009.9 | ||||
| 02 | 17:51 | NE 13 | 16.09 | Fair | CLR | 38.3 | 17.8 | 30% | 40 | 75.79 | 1009.4 | ||||||
| 02 | 16:51 | Vrbl 7 | 16.09 | Fair | CLR | 38.3 | 17.8 | 30% | 40 | 75.79 | 1009.7 | ||||||
| 02 | 15:51 | N 15 G 26 | 16.09 | Fair | CLR | 38.9 | 17.8 | 29% | 41 | 75.84 | 1010.3 | ||||||
| 02 | 14:51 | Vrbl 7 G 28 | 16.09 | Fair | CLR | 38.3 | 18.3 | 31% | 40 | 75.92 | 1011.1 | ||||||
| 02 | 13:51 | Calm | 16.09 | Fair | CLR | 37.2 | 18.9 | 34% | 39 | 76 | 1012.1 | ||||||
| 02 | 12:51 | N 20 G 28 | 16.09 | A Few Clouds | FEW060 | 37.2 | 20 | 37.2 | 23.3 | 37% | 40 | 76.07 | 1013.2 | ||||
| 02 | 11:51 | Calm | 16.09 | Fair | CLR | 33.9 | 20.6 | 46% | 37 | 76.15 | 1014.3 | ||||||
| 02 | 10:51 | Calm | 16.09 | Fair | CLR | 32.2 | 21.1 | 52% | 35 | 76.17 | 1014.6 | ||||||
| Date | Time (cdt) | Wind (kph) | Vis. (km) | Weather | Sky Cond. | Air | Dwpt | Max. | Min. | Relative Humidity | Wind Chill (°C) | Heat Index (°C) | altimeter (cm) | sea level (mb) | 1 hr | 3 hr | 6 hr |
| 6 hour | |||||||||||||||||
| Temperature (ºC) | Pressure | Precipitation (cm) | |||||||||||||||